Time,TemperatureF,DewpointF,PressureIn,WindDirection,WindDirectionDegrees,WindSpeedMPH,WindSpeedGustMPH,Humidity,HourlyPrecipIn,Conditions,Clouds,dailyrainin,SoftwareType,DateUTC
2013-07-10 00:00:00,86.5,67.4,18.49,SSW,202,3.0,4.0,53,0.00,,SKC,0.00,VWS V14.01,2013-07-10 05:00:00,
2013-07-10 00:01:00,87.1,67.9,18.49,SSE,167,4.0,7.0,53,0.00,,SKC,0.00,VWS V14.01,2013-07-10 05:01:00,
2013-07-10 00:07:00,87.0,68.4,18.49,South,169,2.0,5.0,54,0.00,,SKC,0.00,VWS V14.01,2013-07-10 05:07:00,
2013-07-10 00:13:00,86.9,68.3,18.49,SSW,203,4.0,7.0,54,0.00,,SKC,0.00,VWS V14.01,2013-07-10 05:13:00,
2013-07-10 00:19:00,86.8,68.2,18.49,South,177,3.0,7.0,54,0.00,,SKC,0.00,VWS V14.01,2013-07-10 05:19:00,
2013-07-10 00:25:00,86.6,68.0,18.49,SSE,153,3.0,7.0,54,0.00,,SKC,0.00,VWS V14.01,2013-07-10 05:25:00,
2013-07-10 00:30:00,87.5,68.3,18.49,South,181,3.0,8.0,53,0.00,,SKC,0.00,VWS V14.01,2013-07-10 05:30:00,
2013-07-10 00:31:00,86.6,68.0,18.49,SW,216,5.0,8.0,54,0.00,,SKC,0.00,VWS V14.01,2013-07-10 05:31:00,
2013-07-10 00:37:00,86.7,68.1,18.49,SE,144,2.0,7.0,54,0.00,,SKC,0.00,VWS V14.01,2013-07-10 05:37:00,
2013-07-10 00:43:00,86.7,68.6,18.49,ESE,103,10.0,10.0,55,0.00,,SKC,0.00,VWS V14.01,2013-07-10 05:43:00,
2013-07-10 00:49:00,86.6,69.1,18.49,South,188,7.0,10.0,56,0.00,,SKC,0.00,VWS V14.01,2013-07-10 05:49:00,
2013-07-10 00:55:00,86.5,69.0,18.49,SW,216,6.0,10.0,56,0.00,,SKC,0.00,VWS V14.01,2013-07-10 05:55:00,
2013-07-10 01:00:00,87.1,67.9,18.49,South,188,4.0,7.0,53,0.00,,SKC,0.00,VWS V14.01,2013-07-10 06:00:00,
2013-07-10 01:01:00,86.3,69.3,18.49,SSW,213,7.0,10.0,57,0.00,,SKC,0.00,VWS V14.01,2013-07-10 06:01:00,
2013-07-10 01:07:00,86.3,69.3,18.49,South,172,8.0,10.0,57,0.00,,SKC,0.00,VWS V14.01,2013-07-10 06:07:00,
2013-07-10 01:13:00,86.2,69.7,18.49,SSE,157,3.0,10.0,58,0.00,,SKC,0.00,VWS V14.01,2013-07-10 06:13:00,
2013-07-10 01:19:00,86.1,69.6,16.82,SSW,197,6.0,10.0,58,0.00,,SKC,0.00,VWS V14.01,2013-07-10 06:19:00,
2013-07-10 01:25:00,86.1,69.6,16.82,SW,228,5.0,10.0,58,0.00,,SKC,0.00,VWS V14.01,2013-07-10 06:25:00,
2013-07-10 01:30:00,86.6,68.0,18.49,SW,216,5.0,8.0,54,0.00,,SKC,0.00,VWS V14.01,2013-07-10 06:30:00,
2013-07-10 01:31:00,86.1,69.6,18.49,SSW,194,7.0,11.0,58,0.00,,SKC,0.00,VWS V14.01,2013-07-10 06:31:00,
2013-07-10 01:38:00,86.1,69.6,18.49,South,184,4.0,11.0,58,0.00,,SKC,0.00,VWS V14.01,2013-07-10 06:38:00,
2013-07-10 01:44:00,86.0,70.0,18.49,SSW,198,8.0,12.0,59,0.00,,SKC,0.00,VWS V14.01,2013-07-10 06:44:00,
2013-07-10 01:50:00,85.9,70.4,18.49,SSW,212,5.0,12.0,60,0.00,,SKC,0.00,VWS V14.01,2013-07-10 06:50:00,
2013-07-10 01:56:00,85.8,70.3,18.49,SSW,205,10.0,12.0,60,0.00,,SKC,0.00,VWS V14.01,2013-07-10 06:56:00,
2013-07-10 02:00:00,86.3,69.3,18.49,SSW,213,7.0,10.0,57,0.00,,SKC,0.00,VWS V14.01,2013-07-10 07:00:00,
2013-07-10 02:01:00,85.7,70.2,18.49,SSW,203,12.0,12.0,60,0.00,,SKC,0.00,VWS V14.01,2013-07-10 07:01:00,
2013-07-10 02:08:00,85.6,70.6,18.49,South,173,7.0,11.0,61,0.00,,SKC,0.00,VWS V14.01,2013-07-10 07:08:00,
2013-07-10 02:14:00,85.4,70.4,18.49,South,174,7.0,11.0,61,0.00,,SKC,0.00,VWS V14.01,2013-07-10 07:14:00,
2013-07-10 02:20:00,85.3,70.8,18.49,SSW,205,3.0,11.0,62,0.00,,SKC,0.00,VWS V14.01,2013-07-10 07:20:00,
2013-07-10 02:26:00,85.0,70.5,18.49,SSW,211,7.0,11.0,62,0.00,,SKC,0.00,VWS V14.01,2013-07-10 07:26:00,
2013-07-10 02:30:00,86.1,69.6,18.49,SSW,194,7.0,11.0,58,0.00,,SKC,0.00,VWS V14.01,2013-07-10 07:30:00,
2013-07-10 02:31:00,84.9,70.9,18.49,SW,217,9.0,11.0,63,0.00,,SKC,0.00,VWS V14.01,2013-07-10 07:31:00,
2013-07-10 02:38:00,84.7,71.2,18.49,SSW,198,3.0,11.0,64,0.00,,SKC,0.00,VWS V14.01,2013-07-10 07:38:00,
2013-07-10 02:44:00,84.6,71.1,18.49,SSW,193,6.0,13.0,64,0.00,,SKC,0.00,VWS V14.01,2013-07-10 07:44:00,
2013-07-10 02:50:00,84.5,71.4,18.48,SSW,198,7.0,13.0,65,0.00,,SKC,0.00,VWS V14.01,2013-07-10 07:50:00,
2013-07-10 02:56:00,84.5,71.4,18.48,WSW,238,7.0,13.0,65,0.00,,SKC,0.00,VWS V14.01,2013-07-10 07:56:00,
2013-07-10 03:00:00,85.7,70.2,18.49,SSW,203,12.0,12.0,60,0.00,,SKC,0.00,VWS V14.01,2013-07-10 08:00:00,
2013-07-10 03:01:00,84.4,71.8,18.49,SW,215,8.0,13.0,66,0.00,,SKC,0.00,VWS V14.01,2013-07-10 08:01:00,
2013-07-10 03:08:00,84.3,71.7,18.49,SW,230,5.0,10.0,66,0.00,,SKC,0.00,VWS V14.01,2013-07-10 08:08:00,
2013-07-10 03:14:00,84.3,72.2,18.49,SSW,201,10.0,10.0,67,0.00,,SKC,0.00,VWS V14.01,2013-07-10 08:14:00,
2013-07-10 03:20:00,84.2,72.1,18.49,South,189,2.0,10.0,67,0.00,,SKC,0.00,VWS V14.01,2013-07-10 08:20:00,
2013-07-10 03:26:00,84.1,72.0,18.49,SSW,209,3.0,10.0,67,0.00,,SKC,0.00,VWS V14.01,2013-07-10 08:26:00,
2013-07-10 03:30:00,84.9,70.9,18.49,SW,217,9.0,11.0,63,0.00,,SKC,0.00,VWS V14.01,2013-07-10 08:30:00,
2013-07-10 03:31:00,84.0,72.3,18.49,SSW,205,6.0,12.0,68,0.00,,SKC,0.00,VWS V14.01,2013-07-10 08:31:00,
2013-07-10 03:38:00,83.9,72.2,18.49,SSW,213,5.0,10.0,68,0.00,,SKC,0.00,VWS V14.01,2013-07-10 08:38:00,
2013-07-10 03:44:00,83.8,72.6,18.49,SSW,206,6.0,10.0,69,0.00,,SKC,0.00,VWS V14.01,2013-07-10 08:44:00,
2013-07-10 03:50:00,83.7,72.5,18.49,SSW,205,5.0,10.0,69,0.00,,SKC,0.00,VWS V14.01,2013-07-10 08:50:00,
2013-07-10 03:56:00,83.6,72.4,17.01,SSW,194,1.0,10.0,69,0.00,,SKC,0.00,VWS V14.01,2013-07-10 08:56:00,
2013-07-10 04:00:00,84.4,71.8,18.49,SW,215,8.0,13.0,66,0.00,,SKC,0.00,VWS V14.01,2013-07-10 09:00:00,
2013-07-10 04:01:00,83.6,72.8,17.01,SW,223,7.0,10.0,70,0.00,,SKC,0.00,VWS V14.01,2013-07-10 09:01:00,
2013-07-10 04:08:00,83.5,72.7,17.01,South,181,4.0,11.0,70,0.00,,SKC,0.00,VWS V14.01,2013-07-10 09:08:00,
2013-07-10 04:14:00,83.4,72.6,17.01,SSW,203,7.0,12.0,70,0.00,,SKC,0.00,VWS V14.01,2013-07-10 09:14:00,
2013-07-10 04:20:00,83.4,72.6,17.01,SW,217,7.0,12.0,70,0.00,,SKC,0.00,VWS V14.01,2013-07-10 09:20:00,
2013-07-10 04:26:00,83.2,72.8,17.01,SSW,202,5.0,12.0,71,0.00,,SKC,0.00,VWS V14.01,2013-07-10 09:26:00,
2013-07-10 04:30:00,84.0,72.3,18.49,SSW,205,6.0,12.0,68,0.00,,SKC,0.00,VWS V14.01,2013-07-10 09:30:00,
2013-07-10 04:31:00,83.1,72.7,17.01,SSW,198,7.0,12.0,71,0.00,,SKC,0.00,VWS V14.01,2013-07-10 09:31:00,
2013-07-10 04:38:00,83.1,72.7,17.01,SSW,208,8.0,9.0,71,0.00,,SKC,0.00,VWS V14.01,2013-07-10 09:38:00,
2013-07-10 04:44:00,83.1,72.7,17.01,SSW,208,5.0,11.0,71,0.00,,SKC,0.00,VWS V14.01,2013-07-10 09:44:00,
2013-07-10 04:50:00,83.0,73.1,17.01,SW,229,5.0,11.0,72,0.00,,SKC,0.00,VWS V14.01,2013-07-10 09:50:00,
2013-07-10 04:56:00,82.9,72.9,17.01,South,187,4.0,11.0,72,0.00,,SKC,0.00,VWS V14.01,2013-07-10 09:56:00,
2013-07-10 05:00:00,83.6,72.8,17.01,SW,223,7.0,10.0,70,0.00,,SKC,0.00,VWS V14.01,2013-07-10 10:00:00,
2013-07-10 05:01:00,82.9,72.9,17.01,South,174,7.0,11.0,72,0.00,,SKC,0.00,VWS V14.01,2013-07-10 10:01:00,
2013-07-10 05:08:00,82.7,73.2,17.01,SSW,212,3.0,9.0,73,0.00,,SKC,0.00,VWS V14.01,2013-07-10 10:08:00,
2013-07-10 05:14:00,82.7,73.2,17.01,South,180,7.0,13.0,73,0.00,,SKC,0.00,VWS V14.01,2013-07-10 10:14:00,
2013-07-10 05:20:00,82.6,73.1,17.01,SW,218,5.0,13.0,73,0.00,,SKC,0.00,VWS V14.01,2013-07-10 10:20:00,
2013-07-10 05:26:00,82.6,73.1,17.01,SSW,198,6.0,13.0,73,0.00,,SKC,0.00,VWS V14.01,2013-07-10 10:26:00,
2013-07-10 05:30:00,82.6,73.1,17.01,SE,146,5.0,13.0,73,0.00,,SKC,0.00,VWS V14.01,2013-07-10 10:30:00,
2013-07-10 05:31:00,82.6,73.1,17.01,SE,146,5.0,13.0,73,0.00,,SKC,0.00,VWS V14.01,2013-07-10 10:31:00,
2013-07-10 05:38:00,82.6,73.1,17.01,SW,224,4.0,7.0,73,0.00,,SKC,0.00,VWS V14.01,2013-07-10 10:38:00,
2013-07-10 05:44:00,82.5,73.0,17.01,SW,222,5.0,9.0,73,0.00,,SKC,0.00,VWS V14.01,2013-07-10 10:44:00,
2013-07-10 05:50:00,82.4,73.3,17.01,West,267,5.0,9.0,74,0.00,,SKC,0.00,VWS V14.01,2013-07-10 10:50:00,
2013-07-10 05:56:00,82.3,73.2,17.01,South,188,5.0,9.0,74,0.00,,SKC,0.00,VWS V14.01,2013-07-10 10:56:00,
2013-07-10 06:00:00,82.9,72.9,17.01,South,174,7.0,11.0,72,0.00,,SKC,0.00,VWS V14.01,2013-07-10 11:00:00,
2013-07-10 06:01:00,82.2,73.5,17.01,SSW,201,10.0,10.0,75,0.00,,SKC,0.00,VWS V14.01,2013-07-10 11:01:00,
2013-07-10 06:08:00,82.1,73.4,17.01,South,174,4.0,10.0,75,0.00,,SKC,0.00,VWS V14.01,2013-07-10 11:08:00,
2013-07-10 06:14:00,82.0,73.3,17.01,SW,217,4.0,10.0,75,0.00,,SKC,0.00,VWS V14.01,2013-07-10 11:14:00,
2013-07-10 06:20:00,82.0,73.3,17.01,South,190,2.0,10.0,75,0.00,,SKC,0.00,VWS V14.01,2013-07-10 11:20:00,
2013-07-10 06:26:00,82.0,73.3,17.01,WNW,285,7.0,10.0,75,0.00,,SKC,0.00,VWS V14.01,2013-07-10 11:26:00,
2013-07-10 06:30:00,82.6,73.1,17.01,SE,146,5.0,13.0,73,0.00,,SKC,0.00,VWS V14.01,2013-07-10 11:30:00,
2013-07-10 06:31:00,81.9,73.2,17.01,South,175,2.0,11.0,75,0.00,,SKC,0.00,VWS V14.01,2013-07-10 11:31:00,
2013-07-10 06:38:00,81.9,73.2,17.01,SW,222,5.0,12.0,75,0.00,,SKC,0.00,VWS V14.01,2013-07-10 11:38:00,
2013-07-10 06:44:00,81.8,73.1,17.01,SSW,202,6.0,12.0,75,0.00,,SKC,0.00,VWS V14.01,2013-07-10 11:44:00,
2013-07-10 06:50:00,81.8,73.5,17.01,SW,218,9.0,12.0,76,0.00,,SKC,0.00,VWS V14.01,2013-07-10 11:50:00,
2013-07-10 06:56:00,81.7,73.4,17.01,SW,227,9.0,12.0,76,0.00,,SKC,0.00,VWS V14.01,2013-07-10 11:56:00,
2013-07-10 07:00:00,82.2,73.5,17.01,SSW,201,10.0,10.0,75,0.00,,SKC,0.00,VWS V14.01,2013-07-10 12:00:00,
2013-07-10 07:01:00,81.7,73.4,17.01,SW,223,8.0,12.0,76,0.00,,SKC,0.00,VWS V14.01,2013-07-10 12:01:00,
2013-07-10 07:08:00,81.6,73.3,17.01,SSW,200,8.0,9.0,76,0.00,,SKC,0.00,VWS V14.01,2013-07-10 12:08:00,
2013-07-10 07:14:00,81.6,73.7,17.01,SSW,195,6.0,13.0,77,0.00,,SKC,0.00,VWS V14.01,2013-07-10 12:14:00,
2013-07-10 07:20:00,81.5,73.6,17.01,South,171,2.0,13.0,77,0.00,,SKC,0.00,VWS V14.01,2013-07-10 12:20:00,
2013-07-10 07:26:00,81.5,74.0,17.01,SW,221,4.0,13.0,78,0.00,,SKC,0.00,VWS V14.01,2013-07-10 12:26:00,
2013-07-10 07:30:00,81.9,73.2,17.01,South,175,2.0,11.0,75,0.00,,SKC,0.00,VWS V14.01,2013-07-10 12:30:00,
2013-07-10 07:31:00,81.5,74.0,17.01,West,264,4.0,13.0,78,0.00,,SKC,0.00,VWS V14.01,2013-07-10 12:31:00,
2013-07-10 07:38:00,81.5,74.0,17.01,SSW,209,5.0,10.0,78,0.00,,SKC,0.00,VWS V14.01,2013-07-10 12:38:00,
2013-07-10 07:44:00,81.5,74.0,17.01,South,178,5.0,10.0,78,0.00,,SKC,0.00,VWS V14.01,2013-07-10 12:44:00,
2013-07-10 07:50:00,81.4,74.3,17.01,SW,217,4.0,10.0,79,0.00,,SKC,0.00,VWS V14.01,2013-07-10 12:50:00,
2013-07-10 07:56:00,81.4,73.9,17.01,SW,219,4.0,10.0,78,0.00,,SKC,0.00,VWS V14.01,2013-07-10 12:56:00,
2013-07-10 08:00:00,81.7,73.4,17.01,SW,223,8.0,12.0,76,0.00,,SKC,0.00,VWS V14.01,2013-07-10 13:00:00,
2013-07-10 08:01:00,81.4,73.9,17.01,West,271,5.0,10.0,78,0.00,,SKC,0.00,VWS V14.01,2013-07-10 13:01:00,
2013-07-10 08:08:00,81.4,73.9,17.01,SSW,206,5.0,8.0,78,0.00,,SKC,0.00,VWS V14.01,2013-07-10 13:08:00,
2013-07-10 08:14:00,81.4,73.9,17.01,South,174,2.0,9.0,78,0.00,,SKC,0.00,VWS V14.01,2013-07-10 13:14:00,
2013-07-10 08:20:00,81.5,74.0,17.01,SSW,197,4.0,9.0,78,0.00,,SKC,0.00,VWS V14.01,2013-07-10 13:20:00,
2013-07-10 08:26:00,81.7,74.6,17.01,SW,217,7.0,9.0,79,0.00,,SKC,0.00,VWS V14.01,2013-07-10 13:26:00,
2013-07-10 08:30:00,81.5,74.0,17.01,West,264,4.0,13.0,78,0.00,,SKC,0.00,VWS V14.01,2013-07-10 13:30:00,
2013-07-10 08:32:00,81.9,74.4,17.01,SSW,207,5.0,8.0,78,0.00,,SKC,0.00,VWS V14.01,2013-07-10 13:32:00,
2013-07-10 08:38:00,82.4,74.9,17.01,SSW,209,4.0,8.0,78,0.00,,SKC,0.00,VWS V14.01,2013-07-10 13:38:00,
2013-07-10 08:44:00,82.6,74.7,17.01,SW,221,5.0,10.0,77,0.00,,SKC,0.00,VWS V14.01,2013-07-10 13:44:00,
2013-07-10 08:50:00,82.5,74.6,17.01,SW,229,3.0,10.0,77,0.00,,SKC,0.00,VWS V14.01,2013-07-10 13:50:00,
2013-07-10 08:56:00,82.6,74.7,17.01,SSW,200,6.0,10.0,77,0.00,,SKC,0.00,VWS V14.01,2013-07-10 13:56:00,
2013-07-10 09:00:00,81.4,73.9,17.01,West,271,5.0,10.0,78,0.00,,SKC,0.00,VWS V14.01,2013-07-10 14:00:00,
2013-07-10 09:02:00,82.7,74.8,17.01,SSW,202,1.0,5.0,77,0.00,,SKC,0.00,VWS V14.01,2013-07-10 14:02:00,
2013-07-10 09:08:00,83.2,74.8,17.01,SW,219,3.0,7.0,76,0.00,,SKC,0.00,VWS V14.01,2013-07-10 14:08:00,
2013-07-10 09:15:00,83.8,75.4,17.01,WSW,250,2.0,8.0,76,0.00,,SKC,0.00,VWS V14.01,2013-07-10 14:15:00,
2013-07-10 09:21:00,84.4,74.8,17.01,South,188,4.0,8.0,73,0.00,,SKC,0.00,VWS V14.01,2013-07-10 14:21:00,
2013-07-10 09:27:00,85.1,75.5,17.01,SSW,210,7.0,8.0,73,0.00,,SKC,0.00,VWS V14.01,2013-07-10 14:27:00,
2013-07-10 09:30:00,81.8,74.3,17.01,SSW,201,8.0,9.0,78,0.00,,SKC,0.00,VWS V14.01,2013-07-10 14:30:00,
2013-07-10 09:33:00,85.5,75.0,17.01,South,191,6.0,6.0,71,0.00,,SKC,0.00,VWS V14.01,2013-07-10 14:33:00,
2013-07-10 09:39:00,86.1,74.8,17.01,South,179,10.0,10.0,69,0.00,,SKC,0.00,VWS V14.01,2013-07-10 14:39:00,
2013-07-10 09:45:00,86.8,75.0,17.01,SW,214,6.0,10.0,68,0.00,,SKC,0.00,VWS V14.01,2013-07-10 14:45:00,
2013-07-10 09:51:00,87.5,74.3,17.01,SW,219,6.0,10.0,65,0.00,,SKC,0.00,VWS V14.01,2013-07-10 14:51:00,
2013-07-10 09:57:00,87.4,74.7,17.01,SW,234,5.0,10.0,66,0.00,,SKC,0.00,VWS V14.01,2013-07-10 14:57:00,
2013-07-10 10:00:00,82.7,74.8,17.01,South,190,5.0,10.0,77,0.00,,SKC,0.00,VWS V14.01,2013-07-10 15:00:00,
2013-07-10 10:03:00,87.4,74.7,17.01,SW,225,5.0,8.0,66,0.00,,SKC,0.00,VWS V14.01,2013-07-10 15:03:00,
2013-07-10 10:09:00,87.4,74.2,17.01,West,269,4.0,9.0,65,0.00,,SKC,0.00,VWS V14.01,2013-07-10 15:09:00,
2013-07-10 10:15:00,88.0,74.3,17.01,WSW,249,2.0,9.0,64,0.00,,SKC,0.00,VWS V14.01,2013-07-10 15:15:00,
2013-07-10 10:21:00,88.3,74.6,17.01,WSW,237,3.0,9.0,64,0.00,,SKC,0.00,VWS V14.01,2013-07-10 15:21:00,
2013-07-10 10:27:00,88.4,73.7,17.01,SSW,199,3.0,9.0,62,0.00,,SKC,0.00,VWS V14.01,2013-07-10 15:27:00,
2013-07-10 10:30:00,85.4,74.9,17.01,SW,219,3.0,8.0,71,0.00,,SKC,0.00,VWS V14.01,2013-07-10 15:30:00,
2013-07-10 10:33:00,89.0,74.3,17.01,South,188,1.0,7.0,62,0.00,,SKC,0.00,VWS V14.01,2013-07-10 15:33:00,
2013-07-10 10:39:00,89.3,74.1,17.01,SW,225,6.0,8.0,61,0.00,,SKC,0.00,VWS V14.01,2013-07-10 15:39:00,
2013-07-10 10:45:00,89.3,73.6,17.01,WSW,243,3.0,9.0,60,0.00,,SKC,0.00,VWS V14.01,2013-07-10 15:45:00,
2013-07-10 10:51:00,89.4,73.2,17.01,SW,226,6.0,9.0,59,0.00,,SKC,0.00,VWS V14.01,2013-07-10 15:51:00,
2013-07-10 10:57:00,89.8,73.6,17.01,SW,224,5.0,9.0,59,0.00,,SKC,0.00,VWS V14.01,2013-07-10 15:57:00,
2013-07-10 11:00:00,87.4,74.7,17.01,South,181,3.0,10.0,66,0.00,,SKC,0.00,VWS V14.01,2013-07-10 16:00:00,
2013-07-10 11:03:00,90.3,73.5,17.01,SW,216,7.0,7.0,58,0.00,,SKC,0.00,VWS V14.01,2013-07-10 16:03:00,
2013-07-10 11:09:00,90.7,72.9,17.01,SW,231,6.0,9.0,56,0.00,,SKC,0.00,VWS V14.01,2013-07-10 16:09:00,
2013-07-10 11:15:00,91.1,73.2,17.01,SW,232,1.0,9.0,56,0.00,,SKC,0.00,VWS V14.01,2013-07-10 16:15:00,
2013-07-10 11:21:00,91.1,72.7,17.01,South,186,3.0,9.0,55,0.00,,SKC,0.00,VWS V14.01,2013-07-10 16:21:00,
2013-07-10 11:27:00,90.9,72.0,17.01,SSW,194,6.0,9.0,54,0.00,,SKC,0.00,VWS V14.01,2013-07-10 16:27:00,
2013-07-10 11:30:00,88.8,74.6,17.01,SW,215,5.0,9.0,63,0.00,,SKC,0.00,VWS V14.01,2013-07-10 16:30:00,
2013-07-10 11:33:00,90.8,72.4,17.01,SSW,212,7.0,7.0,55,0.00,,SKC,0.00,VWS V14.01,2013-07-10 16:33:00,
2013-07-10 11:39:00,91.0,72.1,17.01,South,170,3.0,7.0,54,0.00,,SKC,0.00,VWS V14.01,2013-07-10 16:39:00,
2013-07-10 11:45:00,90.8,71.9,17.01,SSW,211,2.0,7.0,54,0.00,,SKC,0.00,VWS V14.01,2013-07-10 16:45:00,
2013-07-10 11:51:00,91.0,72.1,17.01,SW,225,4.0,8.0,54,0.00,,SKC,0.00,VWS V14.01,2013-07-10 16:51:00,
2013-07-10 11:57:00,91.9,72.3,17.01,SW,228,3.0,8.0,53,0.00,,SKC,0.00,VWS V14.01,2013-07-10 16:57:00,
2013-07-10 12:00:00,90.2,73.9,17.01,South,188,6.0,9.0,59,0.00,,SKC,0.00,VWS V14.01,2013-07-10 17:00:00,
2013-07-10 12:03:00,92.4,72.2,17.01,WSW,238,4.0,6.0,52,0.00,,SKC,0.00,VWS V14.01,2013-07-10 17:03:00,
2013-07-10 12:09:00,92.4,72.2,17.01,SE,144,6.0,8.0,52,0.00,,SKC,0.00,VWS V14.01,2013-07-10 17:09:00,
2013-07-10 12:15:00,92.4,72.8,17.01,SW,220,3.0,8.0,53,0.00,,SKC,0.00,VWS V14.01,2013-07-10 17:15:00,
2013-07-10 12:21:00,92.3,72.1,17.01,WSW,251,2.0,8.0,52,0.00,,SKC,0.00,VWS V14.01,2013-07-10 17:21:00,
2013-07-10 12:27:00,92.3,71.6,17.01,SSW,211,5.0,8.0,51,0.00,,SKC,0.00,VWS V14.01,2013-07-10 17:27:00,
2013-07-10 12:30:00,90.7,71.8,17.01,SW,229,5.0,9.0,54,0.00,,SKC,0.00,VWS V14.01,2013-07-10 17:30:00,
2013-07-10 12:33:00,92.5,71.8,17.01,South,183,5.0,7.0,51,0.00,,SKC,0.00,VWS V14.01,2013-07-10 17:33:00,
2013-07-10 12:39:00,92.7,71.9,17.01,SSW,192,4.0,7.0,51,0.00,,SKC,0.00,VWS V14.01,2013-07-10 17:39:00,
2013-07-10 12:45:00,92.9,71.5,17.01,SW,214,3.0,7.0,50,0.00,,SKC,0.00,VWS V14.01,2013-07-10 17:45:00,
2013-07-10 12:51:00,92.9,72.1,17.01,WSW,238,3.0,7.0,51,0.00,,SKC,0.00,VWS V14.01,2013-07-10 17:51:00,
2013-07-10 12:57:00,92.9,71.5,17.01,South,186,5.0,9.0,50,0.00,,SKC,0.00,VWS V14.01,2013-07-10 17:57:00,
2013-07-10 13:00:00,92.3,72.7,17.01,WNW,287,3.0,8.0,53,0.00,,SKC,0.00,VWS V14.01,2013-07-10 18:00:00,
2013-07-10 13:03:00,93.5,72.1,18.89,SE,145,4.0,8.0,50,0.00,,SKC,0.00,VWS V14.01,2013-07-10 18:03:00,
2013-07-10 13:09:00,93.9,71.8,18.89,South,169,3.0,8.0,49,0.00,,SKC,0.00,VWS V14.01,2013-07-10 18:09:00,
2013-07-10 13:15:00,94.4,72.3,18.89,ESE,116,5.0,8.0,49,0.00,,SKC,0.00,VWS V14.01,2013-07-10 18:15:00,
2013-07-10 13:21:00,95.4,72.6,18.49,SW,232,4.0,8.0,48,0.00,,SKC,0.00,VWS V14.01,2013-07-10 18:21:00,
2013-07-10 13:27:00,95.8,72.3,18.49,SSW,196,1.0,8.0,47,0.00,,SKC,0.00,VWS V14.01,2013-07-10 18:27:00,
2013-07-10 13:30:00,92.4,72.2,17.01,SW,218,2.0,8.0,52,0.00,,SKC,0.00,VWS V14.01,2013-07-10 18:30:00,
2013-07-10 13:33:00,95.8,71.1,18.49,SW,232,6.0,7.0,45,0.00,,SKC,0.00,VWS V14.01,2013-07-10 18:33:00,
2013-07-10 13:39:00,95.6,72.2,18.49,SW,230,5.0,7.0,47,0.00,,SKC,0.00,VWS V14.01,2013-07-10 18:39:00,
2013-07-10 13:45:00,95.5,70.8,18.49,SSW,211,0.0,7.0,45,0.00,,SKC,0.00,VWS V14.01,2013-07-10 18:45:00,
2013-07-10 13:51:00,96.0,71.9,18.49,SSW,193,1.0,9.0,46,0.00,,SKC,0.00,VWS V14.01,2013-07-10 18:51:00,
2013-07-10 13:57:00,96.2,71.4,18.49,SSW,205,4.0,9.0,45,0.00,,SKC,0.00,VWS V14.01,2013-07-10 18:57:00,
2013-07-10 14:00:00,93.3,72.5,17.01,SE,137,4.0,9.0,51,0.00,,SKC,0.00,VWS V14.01,2013-07-10 19:00:00,
2013-07-10 14:03:00,96.0,70.6,18.49,SSW,202,0.0,7.0,44,0.00,,SKC,0.00,VWS V14.01,2013-07-10 19:03:00,
2013-07-10 14:09:00,96.4,71.6,18.49,WSW,254,3.0,7.0,45,0.00,,SKC,0.00,VWS V14.01,2013-07-10 19:09:00,
2013-07-10 14:15:00,96.7,70.5,18.49,SSW,209,5.0,7.0,43,0.00,,SKC,0.00,VWS V14.01,2013-07-10 19:15:00,
2013-07-10 14:21:00,96.8,71.3,18.49,SSW,213,7.0,7.0,44,0.00,,SKC,0.00,VWS V14.01,2013-07-10 19:21:00,
2013-07-10 14:27:00,96.9,70.7,18.49,SSW,202,3.0,7.0,43,0.00,,SKC,0.00,VWS V14.01,2013-07-10 19:27:00,
2013-07-10 14:30:00,96.0,71.9,18.49,SSE,154,4.0,8.0,46,0.00,,SKC,0.00,VWS V14.01,2013-07-10 19:30:00,
2013-07-10 14:34:00,97.3,71.1,18.49,SSW,205,6.0,6.0,43,0.00,,SKC,0.00,VWS V14.01,2013-07-10 19:34:00,
2013-07-10 14:40:00,97.1,70.2,18.49,South,173,2.0,8.0,42,0.00,,SKC,0.00,VWS V14.01,2013-07-10 19:40:00,
2013-07-10 14:46:00,96.9,70.0,18.49,South,171,3.0,8.0,42,0.00,,SKC,0.00,VWS V14.01,2013-07-10 19:46:00,
2013-07-10 14:52:00,97.4,70.5,18.49,WSW,242,3.0,8.0,42,0.00,,SKC,0.00,VWS V14.01,2013-07-10 19:52:00,
2013-07-10 14:58:00,97.9,70.9,18.49,SSE,150,5.0,8.0,42,0.00,,SKC,0.00,VWS V14.01,2013-07-10 19:58:00,
2013-07-10 15:00:00,96.2,70.8,18.49,SSW,207,7.0,9.0,44,0.00,,SKC,0.00,VWS V14.01,2013-07-10 20:00:00,
2013-07-10 15:04:00,97.9,70.2,18.49,South,180,0.0,5.0,41,0.00,,SKC,0.00,VWS V14.01,2013-07-10 20:04:00,
2013-07-10 15:10:00,98.3,69.8,18.49,South,182,2.0,7.0,40,0.00,,SKC,0.00,VWS V14.01,2013-07-10 20:10:00,
2013-07-10 15:16:00,98.8,70.3,18.49,South,171,4.0,7.0,40,0.00,,SKC,0.00,VWS V14.01,2013-07-10 20:16:00,
2013-07-10 15:22:00,99.2,69.9,18.49,WSW,241,0.0,7.0,39,0.00,,SKC,0.00,VWS V14.01,2013-07-10 20:22:00,
2013-07-10 15:28:00,99.7,68.8,18.49,SSW,210,0.0,7.0,37,0.00,,SKC,0.00,VWS V14.01,2013-07-10 20:28:00,
2013-07-10 15:30:00,97.2,71.0,18.49,SW,219,4.0,8.0,43,0.00,,SKC,0.00,VWS V14.01,2013-07-10 20:30:00,
2013-07-10 15:34:00,99.8,68.9,18.49,WSW,256,2.0,6.0,37,0.00,,SKC,0.00,VWS V14.01,2013-07-10 20:34:00,
2013-07-10 15:40:00,99.7,69.6,18.49,West,259,2.0,7.0,38,0.00,,SKC,0.00,VWS V14.01,2013-07-10 20:40:00,
2013-07-10 15:46:00,99.8,69.7,18.49,SW,218,1.0,7.0,38,0.00,,SKC,0.00,VWS V14.01,2013-07-10 20:46:00,
2013-07-10 15:52:00,99.4,69.3,18.49,SW,236,2.0,11.0,38,0.00,,SKC,0.00,VWS V14.01,2013-07-10 20:52:00,
2013-07-10 15:58:00,99.2,69.2,18.49,SW,223,2.0,11.0,38,0.00,,SKC,0.00,VWS V14.01,2013-07-10 20:58:00,
2013-07-10 16:00:00,98.0,70.3,18.49,SW,221,4.0,8.0,41,0.00,,SKC,0.00,VWS V14.01,2013-07-10 21:00:00,
2013-07-10 16:04:00,99.2,69.9,18.49,West,269,4.0,8.0,39,0.00,,SKC,0.00,VWS V14.01,2013-07-10 21:04:00,
2013-07-10 16:10:00,99.3,69.2,18.49,SSW,205,3.0,8.0,38,0.00,,SKC,0.00,VWS V14.01,2013-07-10 21:10:00,
2013-07-10 16:16:00,99.2,69.9,18.49,South,188,3.0,8.0,39,0.00,,SKC,0.00,VWS V14.01,2013-07-10 21:16:00,
2013-07-10 16:22:00,99.2,69.2,18.49,South,189,3.0,8.0,38,0.00,,SKC,0.00,VWS V14.01,2013-07-10 21:22:00,
2013-07-10 16:28:00,99.5,68.6,18.49,SSW,193,6.0,8.0,37,0.00,,SKC,0.00,VWS V14.01,2013-07-10 21:28:00,
2013-07-10 16:30:00,99.7,70.3,18.49,West,260,5.0,7.0,39,0.00,,SKC,0.00,VWS V14.01,2013-07-10 21:30:00,
2013-07-10 16:34:00,99.2,69.2,18.49,WSW,246,3.0,5.0,38,0.00,,SKC,0.00,VWS V14.01,2013-07-10 21:34:00,
2013-07-10 16:40:00,99.8,69.7,18.49,WNW,300,3.0,9.0,38,0.00,,SKC,0.00,VWS V14.01,2013-07-10 21:40:00,
2013-07-10 16:46:00,99.8,68.9,18.49,West,259,3.0,9.0,37,0.00,,SKC,0.00,VWS V14.01,2013-07-10 21:46:00,
2013-07-10 16:52:00,100.0,69.1,18.49,West,270,6.0,9.0,37,0.00,,SKC,0.00,VWS V14.01,2013-07-10 21:52:00,
2013-07-10 16:58:00,99.3,69.2,18.49,West,265,7.0,9.0,38,0.00,,SKC,0.00,VWS V14.01,2013-07-10 21:58:00,
2013-07-10 17:00:00,99.2,69.9,18.49,SW,217,4.0,11.0,39,0.00,,SKC,0.00,VWS V14.01,2013-07-10 22:00:00,
2013-07-10 17:04:00,99.8,68.9,18.49,WSW,246,1.0,7.0,37,0.00,,SKC,0.00,VWS V14.01,2013-07-10 22:04:00,
2013-07-10 17:10:00,99.8,68.9,18.49,SW,215,3.0,7.0,37,0.00,,SKC,0.00,VWS V14.01,2013-07-10 22:10:00,
2013-07-10 17:16:00,99.4,69.3,18.49,SW,219,1.0,7.0,38,0.00,,SKC,0.00,VWS V14.01,2013-07-10 22:16:00,
2013-07-10 17:22:00,99.4,69.3,18.49,WNW,298,2.0,7.0,38,0.00,,SKC,0.00,VWS V14.01,2013-07-10 22:22:00,
2013-07-10 17:28:00,99.2,69.2,18.49,South,182,3.0,7.0,38,0.00,,SKC,0.00,VWS V14.01,2013-07-10 22:28:00,
2013-07-10 17:30:00,99.1,68.3,18.49,SW,221,3.0,8.0,37,0.00,,SKC,0.00,VWS V14.01,2013-07-10 22:30:00,
2013-07-10 17:34:00,99.3,68.5,18.49,SW,227,4.0,7.0,37,0.00,,SKC,0.00,VWS V14.01,2013-07-10 22:34:00,
2013-07-10 17:40:00,99.3,69.2,18.49,SSW,202,2.0,7.0,38,0.00,,SKC,0.00,VWS V14.01,2013-07-10 22:40:00,
2013-07-10 17:46:00,100.0,69.1,18.49,West,261,3.0,7.0,37,0.00,,SKC,0.00,VWS V14.01,2013-07-10 22:46:00,
2013-07-10 17:52:00,99.8,68.9,18.49,SSW,210,4.0,7.0,37,0.00,,SKC,0.00,VWS V14.01,2013-07-10 22:52:00,
2013-07-10 17:58:00,99.6,68.7,18.49,SSW,211,5.0,7.0,37,0.00,,SKC,0.00,VWS V14.01,2013-07-10 22:58:00,
2013-07-10 18:00:00,99.5,68.6,18.49,SE,144,2.0,8.0,37,0.00,,SKC,0.00,VWS V14.01,2013-07-10 23:00:00,
2013-07-10 18:04:00,99.5,68.6,18.49,SW,236,3.0,6.0,37,0.00,,SKC,0.00,VWS V14.01,2013-07-10 23:04:00,
2013-07-10 18:10:00,99.6,68.7,18.49,SW,223,0.0,6.0,37,0.00,,SKC,0.00,VWS V14.01,2013-07-10 23:10:00,
2013-07-10 18:16:00,99.7,69.6,18.49,SW,225,1.0,6.0,38,0.00,,SKC,0.00,VWS V14.01,2013-07-10 23:16:00,
2013-07-10 18:22:00,99.8,68.9,18.49,WSW,257,4.0,7.0,37,0.00,,SKC,0.00,VWS V14.01,2013-07-10 23:22:00,
2013-07-10 18:28:00,99.9,69.0,18.49,WSW,244,3.0,7.0,37,0.00,,SKC,0.00,VWS V14.01,2013-07-10 23:28:00,
2013-07-10 18:30:00,99.1,68.3,18.49,West,262,4.0,7.0,37,0.00,,SKC,0.00,VWS V14.01,2013-07-10 23:30:00,
2013-07-10 18:34:00,99.5,68.6,18.49,WSW,255,3.0,5.0,37,0.00,,SKC,0.00,VWS V14.01,2013-07-10 23:34:00,
2013-07-10 18:40:00,99.1,68.3,18.49,SW,227,6.0,6.0,37,0.00,,SKC,0.00,VWS V14.01,2013-07-10 23:40:00,
2013-07-10 18:46:00,98.9,68.1,18.49,SSW,207,6.0,6.0,37,0.00,,SKC,0.00,VWS V14.01,2013-07-10 23:46:00,
2013-07-10 18:52:00,98.7,67.1,18.49,SSE,163,2.0,6.0,36,0.00,,SKC,0.00,VWS V14.01,2013-07-10 23:52:00,
2013-07-10 18:58:00,98.3,68.3,18.49,SW,215,1.0,6.0,38,0.00,,SKC,0.00,VWS V14.01,2013-07-10 23:58:00,
2013-07-10 19:00:00,99.5,68.6,18.49,SE,144,2.0,8.0,37,0.00,,SKC,0.00,VWS V14.01,2013-07-11 00:00:00,
2013-07-10 19:04:00,97.9,68.0,18.49,SW,215,1.0,3.0,38,0.00,,SKC,0.00,VWS V14.01,2013-07-11 00:04:00,
2013-07-10 19:10:00,97.7,69.3,18.49,SW,215,0.0,3.0,40,0.00,,SKC,0.00,VWS V14.01,2013-07-11 00:10:00,
2013-07-10 19:16:00,97.5,69.1,18.49,SW,215,0.0,3.0,40,0.00,,SKC,0.00,VWS V14.01,2013-07-11 00:16:00,
2013-07-10 19:22:00,97.1,69.5,18.49,SW,215,0.0,3.0,41,0.00,,SKC,0.00,VWS V14.01,2013-07-11 00:22:00,
2013-07-10 19:28:00,96.9,67.9,18.49,SW,218,3.0,5.0,39,0.00,,SKC,0.00,VWS V14.01,2013-07-11 00:28:00,
2013-07-10 19:30:00,99.7,68.0,18.49,WSW,244,2.0,7.0,36,0.00,,SKC,0.00,VWS V14.01,2013-07-11 00:30:00,
2013-07-10 19:34:00,96.9,68.6,18.49,SSW,207,3.0,3.0,40,0.00,,SKC,0.00,VWS V14.01,2013-07-11 00:34:00,
2013-07-10 19:40:00,96.7,70.5,18.49,SSW,207,0.0,3.0,43,0.00,,SKC,0.00,VWS V14.01,2013-07-11 00:40:00,
2013-07-10 19:46:00,96.5,69.0,18.49,SSW,207,0.0,3.0,41,0.00,,SKC,0.00,VWS V14.01,2013-07-11 00:46:00,
2013-07-10 19:52:00,96.4,71.6,18.49,SSW,207,0.0,3.0,45,0.00,,SKC,0.00,VWS V14.01,2013-07-11 00:52:00,
2013-07-10 19:58:00,96.0,73.2,18.49,SSW,207,0.0,3.0,48,0.00,,SKC,0.00,VWS V14.01,2013-07-11 00:58:00,
2013-07-10 20:00:00,98.1,68.9,18.49,SW,215,1.0,6.0,39,0.00,,SKC,0.00,VWS V14.01,2013-07-11 01:00:00,
2013-07-10 20:04:00,95.3,71.9,18.49,SSW,207,0.0,0.0,47,0.00,,SKC,0.00,VWS V14.01,2013-07-11 01:04:00,
2013-07-10 20:10:00,94.6,71.3,18.49,SSW,207,0.0,1.0,47,0.00,,SKC,0.00,VWS V14.01,2013-07-11 01:10:00,
2013-07-10 20:16:00,94.1,69.5,18.49,SSW,207,0.0,2.0,45,0.00,,SKC,0.00,VWS V14.01,2013-07-11 01:16:00,
2013-07-10 20:22:00,94.0,70.1,18.49,SSW,207,0.0,2.0,46,0.00,,SKC,0.00,VWS V14.01,2013-07-11 01:22:00,
2013-07-10 20:28:00,93.6,69.7,18.49,SSW,207,0.0,2.0,46,0.00,,SKC,0.00,VWS V14.01,2013-07-11 01:28:00,
2013-07-10 20:30:00,97.0,68.7,18.49,SSW,208,1.0,5.0,40,0.00,,SKC,0.00,VWS V14.01,2013-07-11 01:30:00,
2013-07-10 20:34:00,93.3,71.3,18.49,SSW,207,0.0,1.0,49,0.00,,SKC,0.00,VWS V14.01,2013-07-11 01:34:00,
2013-07-10 20:40:00,92.9,70.9,18.49,SSW,207,0.0,1.0,49,0.00,,SKC,0.00,VWS V14.01,2013-07-11 01:40:00,
2013-07-10 20:46:00,92.4,69.9,18.49,SSW,207,0.0,1.0,48,0.00,,SKC,0.00,VWS V14.01,2013-07-11 01:46:00,
2013-07-10 20:52:00,92.1,70.2,18.49,SSW,207,0.0,1.0,49,0.00,,SKC,0.00,VWS V14.01,2013-07-11 01:52:00,
2013-07-10 20:58:00,91.8,69.9,18.49,SSW,207,0.0,1.0,49,0.00,,SKC,0.00,VWS V14.01,2013-07-11 01:58:00,
2013-07-10 21:00:00,95.6,72.2,18.49,SSW,207,0.0,3.0,47,0.00,,SKC,0.00,VWS V14.01,2013-07-11 02:00:00,
2013-07-10 21:04:00,91.5,69.7,18.49,SSW,207,0.0,1.0,49,0.00,,SKC,0.00,VWS V14.01,2013-07-11 02:04:00,
2013-07-10 21:10:00,91.2,70.0,18.49,SSW,207,0.0,1.0,50,0.00,,SKC,0.00,VWS V14.01,2013-07-11 02:10:00,
2013-07-10 21:16:00,90.9,70.3,18.49,SSW,207,0.0,1.0,51,0.00,,SKC,0.00,VWS V14.01,2013-07-11 02:16:00,
2013-07-10 21:22:00,90.5,70.5,18.49,SSW,207,0.0,1.0,52,0.00,,SKC,0.00,VWS V14.01,2013-07-11 02:22:00,
2013-07-10 21:28:00,90.0,69.5,18.49,SSW,207,0.0,1.0,51,0.00,,SKC,0.00,VWS V14.01,2013-07-11 02:28:00,
2013-07-10 21:30:00,93.4,69.5,18.49,SSW,207,0.0,2.0,46,0.00,,SKC,0.00,VWS V14.01,2013-07-11 02:30:00,
2013-07-10 21:34:00,89.7,69.8,18.49,SSW,207,0.0,0.0,52,0.00,,SKC,0.00,VWS V14.01,2013-07-11 02:34:00,
2013-07-10 21:40:00,89.3,69.9,18.49,SSW,207,0.0,1.0,53,0.00,,SKC,0.00,VWS V14.01,2013-07-11 02:40:00,
2013-07-10 21:47:00,89.2,69.8,18.49,SSW,207,0.0,1.0,53,0.00,,SKC,0.00,VWS V14.01,2013-07-11 02:47:00,
2013-07-10 21:53:00,89.0,69.7,18.49,SSW,207,1.0,1.0,53,0.00,,SKC,0.00,VWS V14.01,2013-07-11 02:53:00,
2013-07-10 21:59:00,88.9,70.1,18.49,SSE,149,0.0,2.0,54,0.00,,SKC,0.00,VWS V14.01,2013-07-11 02:59:00,
2013-07-10 22:00:00,91.6,69.8,18.49,SSW,207,0.0,1.0,49,0.00,,SKC,0.00,VWS V14.01,2013-07-11 03:00:00,
2013-07-10 22:05:00,88.7,69.9,18.49,SSE,148,0.0,3.0,54,0.00,,SKC,0.00,VWS V14.01,2013-07-11 03:05:00,
2013-07-10 22:11:00,88.5,70.3,18.49,SSE,148,0.0,3.0,55,0.00,,SKC,0.00,VWS V14.01,2013-07-11 03:11:00,
2013-07-10 22:17:00,88.3,70.1,18.49,SSE,148,0.0,3.0,55,0.00,,SKC,0.00,VWS V14.01,2013-07-11 03:17:00,
2013-07-10 22:23:00,88.1,69.9,18.49,SSE,148,0.0,3.0,55,0.00,,SKC,0.00,VWS V14.01,2013-07-11 03:23:00,
2013-07-10 22:29:00,87.9,69.7,18.49,SSE,148,0.0,3.0,55,0.00,,SKC,0.00,VWS V14.01,2013-07-11 03:29:00,
2013-07-10 22:30:00,89.8,69.8,18.49,SSW,207,0.0,1.0,52,0.00,,SKC,0.00,VWS V14.01,2013-07-11 03:30:00,
2013-07-10 22:35:00,87.8,69.6,18.49,SSE,148,0.0,1.0,55,0.00,,SKC,0.00,VWS V14.01,2013-07-11 03:35:00,
2013-07-10 22:41:00,87.7,69.5,18.49,SSE,148,0.0,2.0,55,0.00,,SKC,0.00,VWS V14.01,2013-07-11 03:41:00,
2013-07-10 22:47:00,87.6,68.9,18.49,SSE,148,0.0,2.0,54,0.00,,SKC,0.00,VWS V14.01,2013-07-11 03:47:00,
2013-07-10 22:53:00,87.5,69.4,18.49,SSE,148,0.0,2.0,55,0.00,,SKC,0.00,VWS V14.01,2013-07-11 03:53:00,
2013-07-10 22:59:00,87.4,69.3,18.49,SSE,148,0.0,2.0,55,0.00,,SKC,0.00,VWS V14.01,2013-07-11 03:59:00,
2013-07-10 23:00:00,88.8,70.0,18.49,SSE,149,0.0,2.0,54,0.00,,SKC,0.00,VWS V14.01,2013-07-11 04:00:00,
2013-07-10 23:01:00,87.4,68.7,18.49,SSE,148,1.0,3.0,54,0.00,,SKC,0.00,VWS V14.01,2013-07-11 04:01:00,
2013-07-10 23:02:00,87.4,68.7,18.49,SSE,148,1.0,2.0,54,0.00,,SKC,0.00,VWS V14.01,2013-07-11 04:02:00,
2013-07-10 23:05:00,87.4,68.7,18.49,SE,145,1.0,3.0,54,0.00,,SKC,0.00,VWS V14.01,2013-07-11 04:05:00,
2013-07-10 23:11:00,87.4,68.7,18.49,SE,137,0.0,3.0,54,0.00,,SKC,0.00,VWS V14.01,2013-07-11 04:11:00,
2013-07-10 23:14:00,87.4,68.7,18.49,SE,137,0.0,3.0,54,0.00,,SKC,0.00,VWS V14.01,2013-07-11 04:14:00,
2013-07-10 23:20:00,87.5,68.8,18.49,SE,144,0.0,3.0,54,0.00,,SKC,0.00,VWS V14.01,2013-07-11 04:20:00,
2013-07-10 23:26:00,87.6,68.9,18.49,SE,144,1.0,3.0,54,0.00,,SKC,0.00,VWS V14.01,2013-07-11 04:26:00,
2013-07-10 23:30:00,87.8,69.6,18.49,SSE,148,0.0,3.0,55,0.00,,SKC,0.00,VWS V14.01,2013-07-11 04:30:00,
2013-07-10 23:31:00,87.9,68.7,18.49,SE,136,2.0,4.0,53,0.00,,SKC,0.00,VWS V14.01,2013-07-11 04:31:00,
2013-07-10 23:38:00,88.2,68.9,18.49,SSE,154,2.0,4.0,53,0.00,,SKC,0.00,VWS V14.01,2013-07-11 04:38:00,
2013-07-10 23:44:00,88.4,68.6,18.49,SSE,165,2.0,5.0,52,0.00,,SKC,0.00,VWS V14.01,2013-07-11 04:44:00,
2013-07-10 23:50:00,88.4,68.6,18.49,SSE,153,3.0,5.0,52,0.00,,SKC,0.00,VWS V14.01,2013-07-11 04:50:00,
2013-07-10 23:56:00,88.3,68.5,18.49,South,181,2.0,5.0,52,0.00,,SKC,0.00,VWS V14.01,2013-07-11 04:56:00,